Flight Track Log - Related Links

Times and Time Zones

All times are in EDT time to prevent confusion due to time zone crossing. See the CTL309 flight status page for this flight to view local times or setup timezone preferences in your user account.

Time Position Orientation Groundspeed Altitude Reporting Facility
EDT Latitude Longitude Course Direction KTS MPH feet Rate Location/Type
Thu 09:11:36 PM 41.5336 -81.6733 346° North 105 121 1,300  Level Cleveland Center
Thu 09:12:55 PM 41.5689 -81.6850 346° North 106 122 2,800 992 Climbing Cleveland Center
Thu 09:13:49 PM 41.5917 -81.7186 312° West 138 159 3,500 1,043 Climbing Cleveland Center
Thu 09:14:50 PM 41.5789 -81.7350 224° Southwest 102 117 4,800 1,082 Climbing Cleveland Center
Thu 09:15:51 PM 41.5414 -81.7317 176° South 133 153 5,700 586 Climbing Cleveland Center
Thu 09:17:03 PM 41.5147 -81.6922 132° Southeast 151 174 6,100 209 Climbing Cleveland Center
Thu 09:17:46 PM 41.4875 -81.6947 184° South 190 219 6,100 -55 Level Cleveland Center
Thu 09:18:53 PM 41.4353 -81.7269 205° Southwest 185 213 6,000  Descending Cleveland Center
Thu 09:19:53 PM 41.3850 -81.7372 189° South 184 212 6,100 50 Climbing Cleveland Center
Thu 09:20:54 PM 41.3328 -81.7444 186° South 183 211 6,100  Level Cleveland Center
Thu 09:21:49 PM 41.2847 -81.7519 187° South 186 214 6,100 -52 Level Cleveland Center
Thu 09:22:49 PM 41.2347 -81.7622 189° South 187 215 6,000  Descending Cleveland Center
Thu 09:24:02 PM 41.1842 -81.8164 219° Southwest 185 213 6,100  Climbing Cleveland Center
Thu 09:24:56 PM 41.1525 -81.8544 222° Southwest 186 214 6,000  Descending Cleveland Center
Thu 09:25:57 PM 41.1103 -81.9031 221° Southwest 189 217 6,100  Climbing Cleveland Center
Thu 09:27:04 PM 41.0678 -81.9519 221° Southwest 187 215 6,000 -11 Descending Cleveland Center
Thu 09:29:00 PM 41.0070 -82.0117 217° Southwest  Level FlightAware Approximate
Thu 09:34:54 PM 40.7594 -82.2983 222° Southwest 190 219 6,000  Level Indianapolis Center
Thu 09:35:56 PM 40.7183 -82.3436 220° Southwest 190 219 6,100 48 Climbing Indianapolis Center
Thu 09:36:00 PM 40.7968 -82.2439 222° Southwest  Level FlightAware Approximate
Thu 09:36:58 PM 40.6778 -82.3908 221° Southwest 191 220 6,100  Level Indianapolis Center
Thu 09:37:00 PM 40.7677 -82.2786 222° Southwest  Level FlightAware Approximate
Thu 09:37:59 PM 40.6372 -82.4358 220° Southwest 191 220 6,100  Level Indianapolis Center
Thu 09:38:00 PM 40.7387 -82.3133 222° Southwest  Level FlightAware Approximate
Thu 09:39:00 PM 40.7097 -82.3480 222° Southwest  Level FlightAware Approximate
Thu 09:39:01 PM 40.5967 -82.4831 221° Southwest 192 221 6,000  Level Indianapolis Center
Thu 09:40:00 PM 40.6807 -82.3826 222° Southwest  Level FlightAware Approximate
Thu 09:40:03 PM 40.5569 -82.5306 222° Southwest 192 221 6,000  Level Indianapolis Center
Thu 09:41:04 PM 40.5164 -82.5778 222° Southwest 192 221 6,000 54 Level Indianapolis Center
Thu 09:41:54 PM 40.4781 -82.6236 222° Southwest 192 221 6,100 -109 Climbing Indianapolis Center
Thu 09:42:54 PM 40.4383 -82.6694 221° Southwest 191 220 5,800 -595 Descending Indianapolis Center
Thu 09:43:55 PM 40.3933 -82.7228 222° Southwest 215 247 4,900 -783 Descending Indianapolis Center
Thu 09:44:49 PM 40.3536 -82.7686 221° Southwest 217 250 4,300 -522 Descending Indianapolis Center
Thu 09:45:50 PM 40.3089 -82.8192 221° Southwest 210 242 3,900 -98 Descending Indianapolis Center
Thu 09:46:51 PM 40.2664 -82.8700 222° Southwest 192 221 4,100 -261 Climbing Indianapolis Center
Thu 09:47:45 PM 40.2289 -82.9106 220° Southwest 200 230 3,400 -714 Descending Indianapolis Center
Thu 09:48:15 PM 40.2100 -82.9314 220° Southwest 202 232 3,100 -716 Descending Indianapolis Center
Thu 09:48:52 PM 40.1772 -82.9681 221° Southwest 216 249 2,600 -848 Descending Indianapolis Center
Thu 09:49:47 PM 40.1317 -83.0047 212° Southwest 209 241 1,800 -621 Descending Indianapolis Center
Thu 09:50:19 PM 40.1131 -83.0203 213° Southwest 209 241 1,700 -387 Descending Indianapolis Center
Thu 09:51:20 PM 40.0781 -83.0522 215° Southwest 183 211 1,200 -492 Descending Indianapolis Center
Thu 09:53:00 PM 40.0667 -83.0667 219° Southwest  Level FlightAware Approximate

Login

Don't have an account? Register now (free) for customized features, flight alerts, and more!